Time;durP1;ratioP1;P1;durP2;ratioP2;P2;SDS_P1;SDS_P2;PMS_P1;PMS_P2;Temp;Humidity;BMP_temperature;BMP_pressure;BME280_temperature;BME280_humidity;BME280_pressure;Samples;Min_cycle;Max_cycle;Signal;HPM_P1;HPM_P2
2024/02/18 00:01:08;;;;;;;31.30;20.10;;;;;;;1.91;100.00;100420.59;105788;1253;71829;-78
2024/02/18 00:03:35;;;;;;;39.30;21.70;;;;;;;1.93;100.00;100423.41;106063;1254;70019;-78
2024/02/18 00:06:03;;;;;;;37.70;21.00;;;;;;;1.94;100.00;100421.59;106626;1254;71725;-78
2024/02/18 00:08:31;;;;;;;33.50;20.00;;;;;;;1.97;100.00;100416.54;106891;1254;60885;-78
2024/02/18 00:10:58;;;;;;;37.30;20.70;;;;;;;1.98;100.00;100417.02;105896;1253;59953;-76
2024/02/18 00:13:26;;;;;;;35.30;20.80;;;;;;;1.93;100.00;100418.86;107083;1253;72000;-77
2024/02/18 00:15:54;;;;;;;33.00;19.60;;;;;;;1.96;100.00;100417.25;106481;1256;68786;-77
2024/02/18 00:18:21;;;;;;;34.50;20.80;;;;;;;2.02;100.00;100417.63;106034;1254;71319;-78
2024/02/18 00:20:49;;;;;;;39.60;21.40;;;;;;;2.02;100.00;100419.89;106732;1253;62011;-77
2024/02/18 00:23:16;;;;;;;36.00;21.10;;;;;;;2.06;100.00;100421.89;106395;1254;60326;-78
2024/02/18 00:25:44;;;;;;;37.00;21.20;;;;;;;2.06;100.00;100422.80;107364;1254;73023;-78
2024/02/18 00:28:12;;;;;;;40.50;22.70;;;;;;;2.06;100.00;100412.65;109040;1253;69218;-78
2024/02/18 00:30:40;;;;;;;41.10;22.60;;;;;;;2.09;100.00;100415.75;108591;1257;71379;-77
2024/02/18 00:33:08;;;;;;;35.70;20.30;;;;;;;2.11;100.00;100417.52;106306;1257;59674;-79
2024/02/18 00:35:35;;;;;;;38.40;21.60;;;;;;;2.12;100.00;100417.80;106007;1254;60038;-77
2024/02/18 00:38:03;;;;;;;36.40;21.40;;;;;;;2.13;100.00;100416.37;105707;1254;71551;-76
2024/02/18 00:40:30;;;;;;;38.50;21.60;;;;;;;2.13;100.00;100411.98;105863;1253;69858;-77
2024/02/18 00:42:57;;;;;;;37.80;21.00;;;;;;;2.13;100.00;100412.86;106273;1257;71088;-77
2024/02/18 00:45:25;;;;;;;42.00;22.40;;;;;;;2.14;100.00;100408.26;105870;1258;59658;-77
2024/02/18 00:47:53;;;;;;;39.10;21.50;;;;;;;2.16;100.00;100407.27;105843;1258;60009;-77
2024/02/18 00:50:20;;;;;;;43.10;22.20;;;;;;;2.16;100.00;100406.95;105620;1253;73058;-79
2024/02/18 00:52:47;;;;;;;39.80;21.60;;;;;;;2.12;100.00;100405.41;105805;1253;69161;-77
2024/02/18 00:55:15;;;;;;;33.40;20.50;;;;;;;2.18;100.00;100403.87;105847;1255;71711;-77
2024/02/18 00:57:42;;;;;;;40.10;22.60;;;;;;;2.23;100.00;100397.63;106205;1252;60027;-77
2024/02/18 01:00:11;;;;;;;40.00;22.40;;;;;;;2.20;100.00;100403.19;106059;1253;59671;-78
2024/02/18 01:02:39;;;;;;;40.70;23.60;;;;;;;2.23;100.00;100407.05;105997;1255;73064;-80
2024/02/18 01:05:07;;;;;;;35.70;21.40;;;;;;;2.28;100.00;100403.77;105898;1253;69034;-78
2024/02/18 01:07:34;;;;;;;40.10;21.70;;;;;;;2.30;100.00;100406.91;105814;1254;74793;-78
2024/02/18 01:10:02;;;;;;;39.20;22.00;;;;;;;2.34;100.00;100407.05;107042;1253;60876;-81
2024/02/18 01:12:30;;;;;;;41.30;22.50;;;;;;;2.35;100.00;100402.25;107194;1258;59759;-78
2024/02/18 01:14:57;;;;;;;40.20;22.10;;;;;;;2.31;100.00;100401.79;106296;1252;71720;-80
2024/02/18 01:17:25;;;;;;;37.70;22.50;;;;;;;2.35;100.00;100404.86;106400;1257;70159;-78
2024/02/18 01:19:57;;;;;;;39.50;22.60;;;;;;;2.40;100.00;100402.27;106366;1253;71584;-77
2024/02/18 01:22:25;;;;;;;39.40;21.40;;;;;;;2.39;100.00;100397.46;106431;1254;61611;-79
2024/02/18 01:24:52;;;;;;;40.70;23.00;;;;;;;2.41;100.00;100397.66;107001;1252;60364;-79
2024/02/18 01:27:20;;;;;;;38.70;21.20;;;;;;;2.46;100.00;100398.04;107995;1252;73054;-78
2024/02/18 01:29:47;;;;;;;43.10;24.20;;;;;;;2.49;100.00;100394.30;107800;1253;69031;-78
2024/02/18 01:32:14;;;;;;;45.50;24.10;;;;;;;2.51;100.00;100390.20;106880;1254;75466;-79
2024/02/18 01:34:42;;;;;;;43.60;23.30;;;;;;;2.49;100.00;100392.92;106458;1254;60889;-78
2024/02/18 01:37:09;;;;;;;43.60;22.90;;;;;;;2.55;100.00;100385.76;106247;1258;60479;-79
2024/02/18 01:39:37;;;;;;;34.90;21.20;;;;;;;2.60;100.00;100383.49;106980;1255;73109;-79
2024/02/18 01:42:06;;;;;;;38.10;22.60;;;;;;;2.63;100.00;100385.06;106394;1253;70103;-79
2024/02/18 01:44:35;;;;;;;39.10;22.00;;;;;;;2.58;100.00;100383.92;106039;1254;72542;-76
2024/02/18 01:47:04;;;;;;;40.10;21.00;;;;;;;2.58;100.00;100380.82;105898;1253;60958;-78
2024/02/18 01:49:33;;;;;;;40.80;21.20;;;;;;;2.62;100.00;100383.01;105948;1259;60493;-79
2024/02/18 01:52:01;;;;;;;38.60;20.80;;;;;;;2.64;100.00;100387.40;106078;1254;73835;-78
2024/02/18 01:54:33;;;;;;;40.70;22.00;;;;;;;2.65;100.00;100385.42;105880;1253;69996;-78
2024/02/18 01:57:06;;;;;;;36.30;22.20;;;;;;;2.61;100.00;100388.81;105852;1258;72494;-78
2024/02/18 01:59:34;;;;;;;34.20;19.90;;;;;;;2.60;100.00;100389.74;105859;1255;60834;-79
2024/02/18 02:02:01;;;;;;;41.60;21.60;;;;;;;2.67;100.00;100393.50;105820;1258;60367;-77
2024/02/18 02:04:28;;;;;;;38.30;20.40;;;;;;;2.73;100.00;100392.26;105925;1252;72802;-77
2024/02/18 02:06:58;;;;;;;41.10;21.50;;;;;;;2.72;100.00;100395.25;108540;1252;70299;-75
2024/02/18 02:09:25;;;;;;;30.20;17.90;;;;;;;2.74;100.00;100398.29;109278;1253;70077;-77
2024/02/18 02:11:52;;;;;;;34.80;19.20;;;;;;;2.82;100.00;100396.71;109445;1252;60559;-79
2024/02/18 02:14:21;;;;;;;29.70;17.70;;;;;;;2.87;100.00;100400.89;108758;1254;60975;-80
2024/02/18 02:16:48;;;;;;;31.50;18.70;;;;;;;2.89;100.00;100402.73;106359;1253;72514;-77
2024/02/18 02:19:15;;;;;;;28.10;17.90;;;;;;;2.95;100.00;100405.48;105989;1253;69907;-75
2024/02/18 02:21:43;;;;;;;29.80;17.90;;;;;;;3.03;100.00;100406.71;105818;1253;71440;-76
2024/02/18 02:24:11;;;;;;;32.20;19.20;;;;;;;3.02;100.00;100406.89;106559;1255;60389;-73
2024/02/18 02:26:41;;;;;;;29.00;16.90;;;;;;;3.02;100.00;100407.97;106522;1253;60335;-77
2024/02/18 02:29:15;;;;;;;29.70;16.50;;;;;;;3.11;100.00;100407.38;106449;1253;73768;-75
2024/02/18 02:31:44;;;;;;;28.70;18.30;;;;;;;3.15;100.00;100407.42;106026;1257;68270;-76
2024/02/18 02:34:13;;;;;;;34.60;18.00;;;;;;;3.12;100.00;100409.52;106030;1254;72638;-77
2024/02/18 02:36:40;;;;;;;27.00;16.00;;;;;;;3.13;100.00;100410.90;106924;1253;60353;-75
2024/02/18 02:39:08;;;;;;;22.60;14.40;;;;;;;3.21;100.00;100407.73;108031;1253;60483;-77
2024/02/18 02:41:35;;;;;;;28.40;16.20;;;;;;;3.27;100.00;100408.23;107047;1253;73806;-78
2024/02/18 02:44:03;;;;;;;27.10;15.90;;;;;;;3.27;100.00;100410.14;105998;1253;70182;-78
2024/02/18 02:46:30;;;;;;;24.30;15.80;;;;;;;3.24;100.00;100409.98;105868;1257;72608;-78
2024/02/18 02:48:58;;;;;;;24.70;15.90;;;;;;;3.31;100.00;100417.23;105873;1253;60919;-79
2024/02/18 02:51:26;;;;;;;29.30;17.40;;;;;;;3.40;100.00;100416.44;105819;1255;60567;-79
2024/02/18 02:53:53;;;;;;;31.70;17.50;;;;;;;3.41;100.00;100419.69;105859;1253;73352;-79
2024/02/18 02:56:21;;;;;;;30.10;18.00;;;;;;;3.40;100.00;100427.29;105890;1253;70165;-79
2024/02/18 02:58:48;;;;;;;30.30;18.30;;;;;;;3.46;100.00;100423.03;105933;1253;71119;-80
2024/02/18 03:01:16;;;;;;;30.10;19.00;;;;;;;3.50;100.00;100425.20;105837;1253;60572;-79
2024/02/18 03:03:43;;;;;;;36.60;20.30;;;;;;;3.49;100.00;100425.82;105941;1254;60342;-78
2024/02/18 03:06:11;;;;;;;33.50;19.50;;;;;;;3.46;100.00;100424.95;107432;1253;73756;-80
2024/02/18 03:08:41;;;;;;;30.50;17.20;;;;;;;3.53;100.00;100427.96;106186;1253;70323;-80
2024/02/18 03:11:09;;;;;;;30.80;18.50;;;;;;;3.59;100.00;100431.58;105934;1253;71438;-77
2024/02/18 03:13:36;;;;;;;30.70;18.60;;;;;;;3.58;100.00;100432.33;105859;1257;60543;-76
2024/02/18 03:16:04;;;;;;;31.70;17.40;;;;;;;3.56;100.00;100434.90;105727;1253;60783;-78
2024/02/18 03:18:32;;;;;;;33.70;19.70;;;;;;;3.62;100.00;100439.05;106059;1253;73872;-78
2024/02/18 03:20:59;;;;;;;30.20;17.70;;;;;;;3.70;100.00;100441.86;107741;1253;69136;-79
2024/02/18 03:23:27;;;;;;;29.80;18.90;;;;;;;3.69;100.00;100444.36;109163;1253;71444;-77
2024/02/18 03:25:54;;;;;;;30.70;18.60;;;;;;;3.68;100.00;100446.92;108286;1253;60440;-79
2024/02/18 03:28:22;;;;;;;28.60;17.70;;;;;;;3.74;100.00;100452.60;106629;1254;59984;-78
2024/02/18 03:30:51;;;;;;;29.50;18.60;;;;;;;3.83;100.00;100455.83;105857;1253;73838;-77
2024/02/18 03:33:18;;;;;;;28.10;18.10;;;;;;;3.86;100.00;100454.59;106045;1253;68950;-78
2024/02/18 03:35:46;;;;;;;29.60;18.10;;;;;;;3.86;100.00;100452.85;106109;1258;74748;-78
2024/02/18 03:38:13;;;;;;;27.50;17.00;;;;;;;3.93;100.00;100452.17;105902;1257;61668;-76
2024/02/18 03:40:41;;;;;;;27.70;17.40;;;;;;;4.03;100.00;100453.05;105851;1253;60460;-78
2024/02/18 03:43:08;;;;;;;27.80;17.40;;;;;;;4.06;100.00;100453.52;105875;1253;73881;-76
2024/02/18 03:45:35;;;;;;;26.40;16.40;;;;;;;4.07;100.00;100456.95;105808;1254;70303;-79
2024/02/18 03:48:03;;;;;;;26.30;15.50;;;;;;;4.15;100.00;100453.59;105813;1254;72702;-77
2024/02/18 03:50:31;;;;;;;24.10;15.70;;;;;;;4.23;100.00;100450.21;105819;1253;60420;-77
2024/02/18 03:52:58;;;;;;;25.30;16.60;;;;;;;4.25;100.00;100459.17;105866;1254;60572;-75
2024/02/18 03:55:26;;;;;;;24.20;15.60;;;;;;;4.23;100.00;100459.70;105825;1253;73922;-77
2024/02/18 03:57:54;;;;;;;22.30;15.40;;;;;;;4.28;100.00;100459.28;105806;1256;69178;-77
2024/02/18 04:00:21;;;;;;;24.30;16.00;;;;;;;4.34;100.00;100462.02;105806;1254;72795;-77
2024/02/18 04:02:49;;;;;;;28.90;17.70;;;;;;;4.33;100.00;100464.79;105835;1257;60415;-79
2024/02/18 04:05:16;;;;;;;23.50;15.90;;;;;;;4.30;100.00;100466.53;105934;1253;60550;-77
2024/02/18 04:07:44;;;;;;;22.00;15.80;;;;;;;4.40;100.00;100465.48;105934;1253;72986;-78
2024/02/18 04:10:11;;;;;;;24.60;15.30;;;;;;;4.50;100.00;100470.56;105875;1252;69963;-78
2024/02/18 04:12:38;;;;;;;23.70;16.10;;;;;;;4.51;100.00;100472.94;105743;1256;70437;-79
2024/02/18 04:15:06;;;;;;;25.90;15.90;;;;;;;4.49;100.00;100470.81;105912;1253;61674;-78
2024/02/18 04:17:33;;;;;;;21.30;13.90;;;;;;;4.55;100.00;100472.16;106070;1253;60847;-75
2024/02/18 04:20:01;;;;;;;22.40;14.20;;;;;;;4.62;100.00;100470.04;107207;1253;74449;-78
2024/02/18 04:22:28;;;;;;;23.70;15.80;;;;;;;4.62;100.00;100472.13;109047;1253;69026;-78
2024/02/18 04:24:56;;;;;;;31.00;23.40;;;;;;;4.61;100.00;100471.17;108399;1253;71423;-78
2024/02/18 04:27:23;;;;;;;37.60;28.50;;;;;;;4.64;100.00;100480.96;106914;1254;61753;-78
2024/02/18 04:29:51;;;;;;;38.40;31.70;;;;;;;4.77;100.00;100481.05;106642;1257;60572;-78
2024/02/18 04:32:18;;;;;;;34.50;26.90;;;;;;;4.88;100.00;100480.21;105939;1253;73865;-77
2024/02/18 04:34:45;;;;;;;27.90;20.90;;;;;;;4.92;100.00;100481.84;106046;1253;70083;-75
2024/02/18 04:37:13;;;;;;;25.60;17.20;;;;;;;4.91;100.00;100485.27;106016;1253;70581;-78
2024/02/18 04:39:40;;;;;;;21.30;14.60;;;;;;;4.92;100.00;100485.74;105726;1258;60642;-78
2024/02/18 04:42:08;;;;;;;20.60;14.60;;;;;;;4.97;100.00;100495.57;105800;1258;60403;-78
2024/02/18 04:44:36;;;;;;;20.70;14.20;;;;;;;4.95;100.00;100493.58;105903;1256;73844;-78
2024/02/18 04:47:04;;;;;;;17.10;13.00;;;;;;;4.91;100.00;100497.59;105837;1253;70149;-78
2024/02/18 04:49:31;;;;;;;20.30;13.10;;;;;;;4.86;100.00;100497.55;105864;1253;72656;-76
2024/02/18 04:52:00;;;;;;;20.00;13.70;;;;;;;4.88;100.00;100499.86;105798;1254;60713;-76
2024/02/18 04:54:28;;;;;;;18.10;12.30;;;;;;;4.91;100.00;100500.00;105852;1258;60629;-79
2024/02/18 04:56:56;;;;;;;19.00;12.90;;;;;;;4.89;100.00;100502.95;105817;1253;73838;-77
2024/02/18 04:59:23;;;;;;;19.80;13.50;;;;;;;4.84;100.00;100510.16;105843;1253;70572;-77
2024/02/18 05:01:50;;;;;;;18.30;12.30;;;;;;;4.82;100.00;100515.10;105947;1254;72559;-78
2024/02/18 05:04:18;;;;;;;17.80;10.90;;;;;;;4.88;100.00;100518.17;105903;1257;60462;-77
2024/02/18 05:06:47;;;;;;;17.10;12.10;;;;;;;4.95;100.00;100518.57;105786;1253;60428;-78
2024/02/18 05:09:14;;;;;;;20.00;13.30;;;;;;;4.92;100.00;100522.94;105822;1253;73885;-78
2024/02/18 05:11:42;;;;;;;18.50;12.20;;;;;;;4.89;100.00;100520.67;106018;1258;69758;-78
2024/02/18 05:14:09;;;;;;;16.80;11.90;;;;;;;4.95;100.00;100524.67;105943;1253;71548;-78
2024/02/18 05:16:37;;;;;;;18.50;13.20;;;;;;;4.99;100.00;100527.70;106319;1253;60453;-77
2024/02/18 05:19:04;;;;;;;19.80;12.50;;;;;;;4.94;100.00;100528.10;108107;1253;60418;-77
2024/02/18 05:21:32;;;;;;;20.20;13.90;;;;;;;4.88;100.00;100529.20;109100;1253;72444;-77
2024/02/18 05:24:01;;;;;;;18.10;10.80;;;;;;;4.88;100.00;100533.23;107300;1253;68731;-76
2024/02/18 05:26:29;;;;;;;15.90;11.30;;;;;;;4.92;100.00;100536.11;106147;1258;71357;-77
2024/02/18 05:28:56;;;;;;;15.50;10.80;;;;;;;4.96;100.00;100541.30;106769;1253;60515;-75
2024/02/18 05:31:24;;;;;;;16.30;11.10;;;;;;;4.94;100.00;100539.43;105946;1257;60390;-79
2024/02/18 05:33:52;;;;;;;15.40;10.80;;;;;;;4.91;100.00;100542.30;105924;1253;73003;-77
2024/02/18 05:36:23;;;;;;;13.30;9.60;;;;;;;4.91;100.00;100540.39;105988;1257;69208;-78
2024/02/18 05:38:50;;;;;;;13.40;9.80;;;;;;;4.97;100.00;100541.04;105811;1253;71098;-78
2024/02/18 05:41:18;;;;;;;16.00;9.80;;;;;;;4.99;100.00;100543.17;105855;1253;60464;-77
2024/02/18 05:43:45;;;;;;;16.20;9.50;;;;;;;4.91;100.00;100542.00;105826;1253;60395;-78
2024/02/18 05:46:12;;;;;;;12.00;8.30;;;;;;;4.85;100.00;100546.84;105852;1253;74189;-77
2024/02/18 05:48:40;;;;;;;9.90;7.40;;;;;;;4.83;100.00;100552.38;105770;1253;70495;-77
2024/02/18 05:51:08;;;;;;;12.40;7.80;;;;;;;4.89;99.99;100558.08;105960;1253;72684;-77
2024/02/18 05:53:35;;;;;;;11.20;8.20;;;;;;;4.92;99.81;100557.67;105908;1253;60627;-78
2024/02/18 05:56:03;;;;;;;10.10;7.40;;;;;;;4.87;99.48;100559.81;106201;1253;60463;-79
2024/02/18 05:58:30;;;;;;;11.50;8.00;;;;;;;4.80;99.65;100566.34;106580;1253;72614;-76
2024/02/18 06:00:58;;;;;;;10.50;7.50;;;;;;;4.78;99.53;100572.58;107688;1253;69036;-78
2024/02/18 06:03:26;;;;;;;11.90;8.60;;;;;;;4.83;99.34;100580.30;109207;1254;71082;-80
2024/02/18 06:05:53;;;;;;;10.20;7.60;;;;;;;4.85;99.41;100582.82;109467;1251;60124;-81
2024/02/18 06:08:21;;;;;;;10.60;7.50;;;;;;;4.82;99.30;100582.67;108831;1253;59257;-81
2024/02/18 06:10:48;;;;;;;8.40;6.30;;;;;;;4.88;99.44;100582.23;107402;1253;72572;-83
2024/02/18 06:13:16;;;;;;;8.80;6.70;;;;;;;4.97;99.19;100587.55;107636;1253;68979;-82
2024/02/18 06:15:44;;;;;;;9.70;6.20;;;;;;;4.95;98.83;100592.45;108727;1252;71450;-79
2024/02/18 06:18:11;;;;;;;9.40;6.10;;;;;;;4.90;98.68;100596.08;109271;1253;60385;-82
2024/02/18 06:20:41;;;;;;;8.30;6.10;;;;;;;4.97;98.54;100597.95;109172;1253;59391;-82
2024/02/18 06:23:09;;;;;;;8.00;5.60;;;;;;;5.04;98.20;100597.44;107444;1253;72871;-81
2024/02/18 06:25:37;;;;;;;6.70;5.00;;;;;;;5.03;98.41;100603.30;107130;1253;70156;-81
2024/02/18 06:28:08;;;;;;;9.50;5.60;;;;;;;5.03;98.24;100600.65;107873;1253;71147;-80
2024/02/18 06:30:36;;;;;;;7.50;5.20;;;;;;;5.07;97.34;100601.95;106715;1258;61776;-79
2024/02/18 06:33:05;;;;;;;6.80;5.30;;;;;;;5.09;96.71;100600.52;106589;1253;60507;-81
2024/02/18 06:35:33;;;;;;;5.20;4.20;;;;;;;5.05;96.55;100602.61;106045;1252;73817;-81
2024/02/18 06:38:01;;;;;;;6.00;4.40;;;;;;;5.00;97.09;100603.83;105982;1257;68704;-81
2024/02/18 06:40:28;;;;;;;6.60;4.30;;;;;;;4.98;97.10;100607.67;105917;1253;71692;-80
2024/02/18 06:42:55;;;;;;;4.90;3.80;;;;;;;5.07;96.80;100613.00;106102;1253;60547;-80
2024/02/18 06:45:23;;;;;;;5.40;4.10;;;;;;;5.09;95.58;100609.64;106348;1257;60409;-80
2024/02/18 06:47:50;;;;;;;6.00;4.10;;;;;;;5.04;95.55;100610.61;108934;1253;72672;-79
2024/02/18 06:50:18;;;;;;;5.10;4.00;;;;;;;4.95;95.41;100614.55;108794;1253;68803;-82
2024/02/18 06:52:45;;;;;;;4.60;3.50;;;;;;;4.91;95.79;100619.38;106141;1253;71609;-81
2024/02/18 06:55:12;;;;;;;4.10;3.20;;;;;;;4.97;95.23;100619.84;106879;1253;60451;-78
2024/02/18 06:57:44;;;;;;;4.70;3.30;;;;;;;5.01;94.84;100622.73;106979;1253;60536;-80
2024/02/18 07:00:12;;;;;;;4.60;3.20;;;;;;;4.99;94.82;100623.59;106450;1253;73893;-80
2024/02/18 07:02:41;;;;;;;4.50;3.10;;;;;;;4.93;95.00;100626.23;107178;1254;70117;-79
2024/02/18 07:05:09;;;;;;;5.00;2.90;;;;;;;4.97;94.67;100629.89;107870;1253;71332;-80
2024/02/18 07:07:36;;;;;;;4.60;3.30;;;;;;;5.02;94.79;100626.67;108183;1253;59140;-81
2024/02/18 07:10:05;;;;;;;4.90;3.10;;;;;;;5.04;94.93;100627.81;107937;1253;60323;-82
2024/02/18 07:12:34;;;;;;;3.70;2.70;;;;;;;5.07;94.84;100632.83;106539;1253;72576;-82
2024/02/18 07:15:02;;;;;;;4.60;2.40;;;;;;;5.15;94.37;100634.86;106567;1257;68560;-80
2024/02/18 07:17:29;;;;;;;2.70;2.00;;;;;;;5.22;93.96;100639.84;109154;1252;71662;-81
2024/02/18 07:19:57;;;;;;;3.40;2.50;;;;;;;5.20;93.68;100638.55;108855;1253;58368;-82
2024/02/18 07:22:26;;;;;;;3.20;2.20;;;;;;;5.18;93.26;100641.34;107240;1252;59151;-82
2024/02/18 07:24:53;;;;;;;2.90;1.90;;;;;;;5.24;92.59;100643.19;108404;1252;73916;-80
2024/02/18 07:27:21;;;;;;;3.10;2.00;;;;;;;5.30;92.09;100649.38;106840;1252;68711;-80
2024/02/18 07:29:48;;;;;;;2.00;1.60;;;;;;;5.28;90.47;100648.37;106037;1253;72716;-79
2024/02/18 07:32:16;;;;;;;2.50;1.90;;;;;;;5.19;90.16;100655.99;106134;1253;61708;-80
2024/02/18 07:34:43;;;;;;;3.50;2.30;;;;;;;5.17;89.69;100658.09;106000;1258;60480;-80
2024/02/18 07:37:11;;;;;;;2.70;1.90;;;;;;;5.16;89.64;100666.09;106340;1251;74136;-80
2024/02/18 07:39:38;;;;;;;2.20;1.80;;;;;;;5.08;89.61;100669.26;106585;1255;69234;-80
2024/02/18 07:42:06;;;;;;;2.80;2.30;;;;;;;5.02;89.58;100673.23;106494;1254;71393;-80
2024/02/18 07:44:34;;;;;;;2.40;1.90;;;;;;;5.04;89.34;100676.09;105962;1253;61830;-82
2024/02/18 07:47:01;;;;;;;2.20;2.00;;;;;;;5.05;89.50;100678.77;105929;1258;60320;-81
2024/02/18 07:49:28;;;;;;;2.80;2.10;;;;;;;5.01;89.24;100678.94;105895;1257;73974;-80
2024/02/18 07:51:56;;;;;;;3.50;1.90;;;;;;;4.94;88.87;100679.05;105926;1253;69065;-80
2024/02/18 07:54:24;;;;;;;1.50;1.40;;;;;;;4.95;88.50;100678.82;107190;1257;71471;-80
2024/02/18 07:56:51;;;;;;;2.10;1.80;;;;;;;5.00;88.17;100686.19;106118;1257;60444;-80
2024/02/18 07:59:21;;;;;;;1.50;1.10;;;;;;;4.97;87.48;100688.66;106017;1257;60360;-82
2024/02/18 08:01:49;;;;;;;1.80;1.00;;;;;;;4.93;87.48;100696.13;106126;1252;73750;-80
2024/02/18 08:04:16;;;;;;;1.40;1.30;;;;;;;4.94;86.96;100696.94;106260;1253;70928;-80
2024/02/18 08:06:44;;;;;;;2.10;1.40;;;;;;;5.06;87.16;100700.17;106188;1253;72425;-78
2024/02/18 08:09:15;;;;;;;2.20;1.50;;;;;;;5.16;87.44;100697.85;105944;1253;60522;-80
2024/02/18 08:11:44;;;;;;;1.10;0.90;;;;;;;5.24;87.37;100700.96;106541;1253;59944;-80
2024/02/18 08:14:12;;;;;;;3.50;1.00;;;;;;;5.27;86.45;100707.39;107836;1253;72564;-80
2024/02/18 08:16:40;;;;;;;1.60;1.00;;;;;;;5.31;85.56;100719.09;108885;1252;68784;-80
2024/02/18 08:19:07;;;;;;;3.00;0.80;;;;;;;5.27;84.90;100728.17;108429;1253;72891;-80
2024/02/18 08:21:35;;;;;;;0.60;0.60;;;;;;;5.10;83.87;100743.57;106858;1257;60543;-80
2024/02/18 08:24:02;;;;;;;0.80;0.80;;;;;;;4.83;83.39;100744.57;107143;1253;60463;-81
2024/02/18 08:26:30;;;;;;;2.00;1.40;;;;;;;4.64;83.92;100751.19;105934;1261;73778;-80
2024/02/18 08:28:57;;;;;;;3.20;2.10;;;;;;;4.57;83.96;100754.83;105747;1253;69052;-80
2024/02/18 08:31:25;;;;;;;3.10;1.80;;;;;;;4.54;84.45;100758.02;105910;1258;70259;-80
2024/02/18 08:33:52;;;;;;;1.60;1.10;;;;;;;4.52;85.09;100761.77;105731;1253;60506;-79
2024/02/18 08:36:20;;;;;;;2.30;1.80;;;;;;;4.53;85.32;100764.04;106011;1254;60378;-79
2024/02/18 08:38:50;;;;;;;2.80;1.90;;;;;;;4.62;84.62;100768.71;105883;1253;73830;-78
2024/02/18 08:41:18;;;;;;;2.80;1.90;;;;;;;4.67;83.74;100768.17;105895;1257;69994;-78
2024/02/18 08:43:51;;;;;;;2.10;1.40;;;;;;;4.64;83.37;100766.23;105847;1256;72711;-78
2024/02/18 08:46:18;;;;;;;4.40;2.40;;;;;;;4.59;82.73;100774.89;106026;1256;60522;-79
2024/02/18 08:48:46;;;;;;;4.50;3.20;;;;;;;4.57;83.01;100776.94;105868;1254;60423;-79
2024/02/18 08:51:13;;;;;;;2.50;2.30;;;;;;;4.63;82.95;100780.02;107706;1253;72648;-78
2024/02/18 08:53:41;;;;;;;2.50;2.20;;;;;;;4.67;83.16;100783.98;107359;1253;69014;-77
2024/02/18 08:56:11;;;;;;;1.90;1.60;;;;;;;4.56;81.56;100786.27;106249;1253;72168;-76
2024/02/18 08:58:39;;;;;;;1.90;1.70;;;;;;;4.36;81.35;100789.20;105908;1258;60544;-78
2024/02/18 09:01:07;;;;;;;3.10;1.80;;;;;;;4.16;81.11;100796.97;105942;1259;60333;-77
2024/02/18 09:03:35;;;;;;;2.40;1.90;;;;;;;4.08;80.25;100802.58;105957;1253;73924;-78
2024/02/18 09:06:03;;;;;;;1.20;1.10;;;;;;;4.03;80.07;100808.86;105825;1253;70365;-77
2024/02/18 09:08:30;;;;;;;1.90;1.60;;;;;;;3.94;79.71;100812.98;106011;1258;71714;-78
2024/02/18 09:10:58;;;;;;;2.10;1.70;;;;;;;3.87;79.75;100819.91;107200;1253;60377;-77
2024/02/18 09:13:25;;;;;;;1.60;1.50;;;;;;;3.79;78.86;100825.52;109032;1252;58342;-78
2024/02/18 09:15:52;;;;;;;1.60;1.50;;;;;;;3.71;78.24;100825.31;108010;1257;72590;-78
2024/02/18 09:18:20;;;;;;;2.00;1.50;;;;;;;3.72;78.33;100832.22;106506;1257;67940;-79
2024/02/18 09:20:47;;;;;;;4.40;2.10;;;;;;;3.76;78.56;100834.14;106520;1253;72638;-78
2024/02/18 09:23:16;;;;;;;2.60;1.80;;;;;;;3.72;78.77;100834.16;105978;1252;61338;-78
2024/02/18 09:25:43;;;;;;;2.80;1.70;;;;;;;3.67;78.57;100835.17;106015;1253;60387;-76
2024/02/18 09:28:11;;;;;;;2.80;1.60;;;;;;;3.61;77.94;100836.80;106036;1253;226335;-78
2024/02/18 09:31:40;;;;;;;2.80;1.80;;;;;;;3.61;78.45;100839.73;102697;1291;599900;-80
2024/02/18 09:34:08;;;;;;;2.40;1.70;;;;;;;3.55;78.79;100843.65;104835;1269;59466;-78
2024/02/18 09:36:36;;;;;;;1.60;1.40;;;;;;;3.47;78.45;100841.86;104981;1269;61923;-78
2024/02/18 09:39:04;;;;;;;2.30;1.30;;;;;;;3.37;78.01;100846.36;104929;1271;72176;-78
2024/02/18 09:41:31;;;;;;;1.30;1.10;;;;;;;3.30;77.92;100843.08;105084;1268;70384;-77
2024/02/18 09:44:03;;;;;;;1.30;1.20;;;;;;;3.27;78.05;100841.16;104910;1269;72825;-79
2024/02/18 09:46:36;;;;;;;2.40;1.70;;;;;;;3.19;78.06;100843.40;105505;1258;678430;-79
2024/02/18 09:49:05;;;;;;;2.80;2.40;;;;;;;3.09;78.05;100842.08;106438;1257;59247;-78
2024/02/18 09:51:35;;;;;;;4.00;2.80;;;;;;;3.05;77.97;100842.52;107088;1257;70665;-78
2024/02/18 09:54:09;;;;;;;5.30;4.30;;;;;;;3.13;78.05;100847.28;108926;1257;69349;-79
2024/02/18 09:56:36;;;;;;;7.00;4.10;;;;;;;3.27;78.63;100846.94;108771;1258;73667;-79
2024/02/18 09:59:04;;;;;;;9.50;6.90;;;;;;;3.38;78.35;100847.53;106887;1259;62055;-80
2024/02/18 10:01:31;;;;;;;7.20;6.00;;;;;;;3.46;78.89;100852.48;106648;1254;59544;-79
2024/02/18 10:03:59;;;;;;;5.30;4.60;;;;;;;3.53;78.46;100849.37;106474;1256;73031;-81
2024/02/18 10:06:27;;;;;;;4.40;3.20;;;;;;;3.56;78.08;100856.02;108455;1253;70135;-79
2024/02/18 10:09:11;;;;;;;5.00;4.00;;;;;;;3.61;77.81;100858.52;105594;1291;599397;-78
2024/02/18 10:11:39;;;;;;;3.40;3.00;;;;;;;3.69;76.97;100862.59;105631;1267;61526;-78
2024/02/18 10:14:07;;;;;;;7.90;6.40;;;;;;;3.73;76.98;100864.05;105615;1272;58853;-77
2024/02/18 10:16:38;;;;;;;4.30;3.60;;;;;;;3.69;77.11;100866.08;105406;1273;72347;-78
2024/02/18 10:19:09;;;;;;;3.50;2.30;;;;;;;3.63;76.79;100864.55;105447;1266;69165;-78
2024/02/18 10:21:37;;;;;;;4.40;3.30;;;;;;;3.54;76.85;100867.19;105856;1267;72677;-77
2024/02/18 10:24:05;;;;;;;2.20;1.80;;;;;;;3.47;76.25;100870.05;105475;1266;61252;-78
2024/02/18 10:26:33;;;;;;;4.20;3.10;;;;;;;3.45;75.99;100868.98;105483;1269;60576;-78
2024/02/18 10:29:01;;;;;;;6.70;3.50;;;;;;;3.45;76.31;100870.37;105004;1266;71500;-77
2024/02/18 10:31:29;;;;;;;5.40;3.60;;;;;;;3.38;76.52;100870.98;105151;1269;69267;-77
2024/02/18 10:33:56;;;;;;;4.30;3.50;;;;;;;3.31;77.34;100871.77;104718;1273;72678;-77
2024/02/18 10:36:25;;;;;;;7.20;5.10;;;;;;;3.28;77.72;100877.52;105594;1262;59651;-77
2024/02/18 10:38:53;;;;;;;3.90;3.20;;;;;;;3.27;77.79;100879.21;105518;1263;59559;-77
2024/02/18 10:41:24;;;;;;;1.70;1.50;;;;;;;3.24;77.67;100879.73;105609;1259;72440;-76
2024/02/18 10:43:52;;;;;;;1.50;1.10;;;;;;;3.28;77.72;100882.45;106675;1260;68711;-76
2024/02/18 10:46:21;;;;;;;1.60;1.20;;;;;;;3.33;77.72;100881.77;105244;1259;72659;-76
2024/02/18 10:48:53;;;;;;;1.80;1.40;;;;;;;3.31;78.20;100884.33;105422;1264;59611;-76
2024/02/18 10:51:25;;;;;;;3.10;1.40;;;;;;;3.26;78.26;100886.39;105476;1259;59834;-76
2024/02/18 10:54:08;;;;;;;1.80;1.60;;;;;;;3.21;78.54;100886.39;105524;1262;73021;-78
2024/02/18 10:56:37;;;;;;;1.70;1.40;;;;;;;3.19;78.85;100880.16;105591;1261;69226;-78
2024/02/18 10:59:15;;;;;;;1.60;1.50;;;;;;;3.17;78.45;100887.84;106228;1256;71810;-77
2024/02/18 11:02:05;;;;;;;1.60;1.20;;;;;;;3.20;77.66;100889.20;108535;1254;60900;-78
2024/02/18 11:04:32;;;;;;;2.40;2.20;;;;;;;3.20;76.59;100884.71;108861;1254;60844;-78
2024/02/18 11:07:00;;;;;;;2.80;2.00;;;;;;;3.15;75.60;100889.02;106161;1254;73135;-77
2024/02/18 11:09:27;;;;;;;2.90;2.40;;;;;;;3.13;76.54;100894.70;106468;1254;68850;-78
2024/02/18 11:11:55;;;;;;;1.80;1.70;;;;;;;3.14;76.11;100889.73;107593;1256;72743;-78
2024/02/18 11:14:22;;;;;;;2.90;2.20;;;;;;;3.15;76.39;100889.68;106194;1254;59732;-80
2024/02/18 11:16:50;;;;;;;3.30;2.10;;;;;;;3.18;76.48;100895.29;105728;1254;59994;-80